sensor_id;sensor_type;location;lat;lon;timestamp;P1;durP1;ratioP1;P2;durP2;ratioP2
15848;SDS011;8024;48.708;9.394;2023-09-19T00:01:34;0.70;;;0.30;;
15848;SDS011;8024;48.708;9.394;2023-09-19T00:04:03;0.70;;;0.47;;
15848;SDS011;8024;48.708;9.394;2023-09-19T00:06:34;0.60;;;0.40;;
15848;SDS011;8024;48.708;9.394;2023-09-19T00:09:02;0.40;;;0.30;;
15848;SDS011;8024;48.708;9.394;2023-09-19T00:11:29;1.33;;;0.30;;
15848;SDS011;8024;48.708;9.394;2023-09-19T00:13:57;0.40;;;0.40;;
15848;SDS011;8024;48.708;9.394;2023-09-19T00:16:25;0.80;;;0.30;;
15848;SDS011;8024;48.708;9.394;2023-09-19T00:18:52;0.77;;;0.30;;
15848;SDS011;8024;48.708;9.394;2023-09-19T00:21:21;1.43;;;0.30;;
15848;SDS011;8024;48.708;9.394;2023-09-19T00:23:48;0.20;;;0.20;;
15848;SDS011;8024;48.708;9.394;2023-09-19T00:26:16;2.10;;;0.40;;
15848;SDS011;8024;48.708;9.394;2023-09-19T00:28:46;0.33;;;0.20;;
15848;SDS011;8024;48.708;9.394;2023-09-19T00:31:13;1.07;;;0.30;;
15848;SDS011;8024;48.708;9.394;2023-09-19T00:33:40;0.30;;;0.30;;
15848;SDS011;8024;48.708;9.394;2023-09-19T00:36:07;0.77;;;0.30;;
15848;SDS011;8024;48.708;9.394;2023-09-19T00:38:36;0.20;;;0.20;;
15848;SDS011;8024;48.708;9.394;2023-09-19T00:41:03;0.57;;;0.30;;
15848;SDS011;8024;48.708;9.394;2023-09-19T00:43:30;0.30;;;0.30;;
15848;SDS011;8024;48.708;9.394;2023-09-19T00:45:59;2.27;;;0.40;;
15848;SDS011;8024;48.708;9.394;2023-09-19T00:48:28;0.80;;;0.47;;
15848;SDS011;8024;48.708;9.394;2023-09-19T00:50:56;0.30;;;0.30;;
15848;SDS011;8024;48.708;9.394;2023-09-19T00:53:28;0.40;;;0.40;;
15848;SDS011;8024;48.708;9.394;2023-09-19T00:56:00;0.50;;;0.40;;
15848;SDS011;8024;48.708;9.394;2023-09-19T00:58:28;1.10;;;0.60;;
15848;SDS011;8024;48.708;9.394;2023-09-19T01:00:58;0.67;;;0.67;;
15848;SDS011;8024;48.708;9.394;2023-09-19T01:03:26;0.40;;;0.40;;
15848;SDS011;8024;48.708;9.394;2023-09-19T01:05:54;1.00;;;0.63;;
15848;SDS011;8024;48.708;9.394;2023-09-19T01:08:22;0.40;;;0.40;;
15848;SDS011;8024;48.708;9.394;2023-09-19T01:10:51;1.70;;;0.60;;
15848;SDS011;8024;48.708;9.394;2023-09-19T01:13:28;0.50;;;0.40;;
15848;SDS011;8024;48.708;9.394;2023-09-19T01:16:03;0.50;;;0.50;;
15848;SDS011;8024;48.708;9.394;2023-09-19T01:18:39;1.20;;;0.50;;
15848;SDS011;8024;48.708;9.394;2023-09-19T01:21:11;0.50;;;0.20;;
15848;SDS011;8024;48.708;9.394;2023-09-19T01:23:55;1.10;;;0.30;;
15848;SDS011;8024;48.708;9.394;2023-09-19T01:26:42;0.80;;;0.40;;
15848;SDS011;8024;48.708;9.394;2023-09-19T01:29:34;0.50;;;0.30;;
15848;SDS011;8024;48.708;9.394;2023-09-19T01:32:06;0.30;;;0.20;;
15848;SDS011;8024;48.708;9.394;2023-09-19T01:34:45;0.30;;;0.30;;
15848;SDS011;8024;48.708;9.394;2023-09-19T01:37:15;0.53;;;0.20;;
15848;SDS011;8024;48.708;9.394;2023-09-19T01:39:45;0.20;;;0.20;;
15848;SDS011;8024;48.708;9.394;2023-09-19T01:42:18;0.50;;;0.30;;
15848;SDS011;8024;48.708;9.394;2023-09-19T01:44:51;0.20;;;0.20;;
15848;SDS011;8024;48.708;9.394;2023-09-19T01:47:28;2.40;;;0.40;;
15848;SDS011;8024;48.708;9.394;2023-09-19T01:50:02;0.30;;;0.30;;
15848;SDS011;8024;48.708;9.394;2023-09-19T01:52:42;2.27;;;0.37;;
15848;SDS011;8024;48.708;9.394;2023-09-19T01:55:14;2.07;;;0.53;;
15848;SDS011;8024;48.708;9.394;2023-09-19T01:57:47;0.20;;;0.20;;
15848;SDS011;8024;48.708;9.394;2023-09-19T02:00:18;0.20;;;0.20;;
15848;SDS011;8024;48.708;9.394;2023-09-19T02:02:50;0.20;;;0.20;;
15848;SDS011;8024;48.708;9.394;2023-09-19T02:05:24;0.33;;;0.20;;
15848;SDS011;8024;48.708;9.394;2023-09-19T02:07:52;0.93;;;0.30;;
15848;SDS011;8024;48.708;9.394;2023-09-19T02:10:20;1.27;;;0.20;;
15848;SDS011;8024;48.708;9.394;2023-09-19T02:12:48;0.20;;;0.20;;
15848;SDS011;8024;48.708;9.394;2023-09-19T02:15:16;0.67;;;0.20;;
15848;SDS011;8024;48.708;9.394;2023-09-19T02:17:44;1.20;;;0.40;;
15848;SDS011;8024;48.708;9.394;2023-09-19T02:20:13;1.87;;;0.30;;
15848;SDS011;8024;48.708;9.394;2023-09-19T02:22:42;0.30;;;0.30;;
15848;SDS011;8024;48.708;9.394;2023-09-19T02:25:09;2.03;;;0.47;;
15848;SDS011;8024;48.708;9.394;2023-09-19T02:27:38;0.20;;;0.20;;
15848;SDS011;8024;48.708;9.394;2023-09-19T02:30:06;0.20;;;0.20;;
15848;SDS011;8024;48.708;9.394;2023-09-19T02:32:33;0.30;;;0.30;;
15848;SDS011;8024;48.708;9.394;2023-09-19T02:35:04;0.80;;;0.20;;
15848;SDS011;8024;48.708;9.394;2023-09-19T02:37:33;2.63;;;0.30;;
15848;SDS011;8024;48.708;9.394;2023-09-19T02:40:01;0.20;;;0.20;;
15848;SDS011;8024;48.708;9.394;2023-09-19T02:42:43;0.90;;;0.40;;
15848;SDS011;8024;48.708;9.394;2023-09-19T02:45:13;0.53;;;0.20;;
15848;SDS011;8024;48.708;9.394;2023-09-19T02:47:42;1.00;;;0.30;;
15848;SDS011;8024;48.708;9.394;2023-09-19T02:50:09;0.40;;;0.30;;
15848;SDS011;8024;48.708;9.394;2023-09-19T02:52:41;1.27;;;0.30;;
15848;SDS011;8024;48.708;9.394;2023-09-19T02:55:09;0.40;;;0.40;;
15848;SDS011;8024;48.708;9.394;2023-09-19T02:57:36;1.33;;;0.40;;
15848;SDS011;8024;48.708;9.394;2023-09-19T03:00:06;0.97;;;0.30;;
15848;SDS011;8024;48.708;9.394;2023-09-19T03:02:35;0.50;;;0.40;;
15848;SDS011;8024;48.708;9.394;2023-09-19T03:05:05;0.50;;;0.30;;
15848;SDS011;8024;48.708;9.394;2023-09-19T03:07:33;0.80;;;0.53;;
15848;SDS011;8024;48.708;9.394;2023-09-19T03:10:04;0.23;;;0.23;;
15848;SDS011;8024;48.708;9.394;2023-09-19T03:12:32;0.40;;;0.33;;
15848;SDS011;8024;48.708;9.394;2023-09-19T03:14:59;0.40;;;0.30;;
15848;SDS011;8024;48.708;9.394;2023-09-19T03:17:27;2.00;;;0.30;;
15848;SDS011;8024;48.708;9.394;2023-09-19T03:19:54;0.30;;;0.30;;
15848;SDS011;8024;48.708;9.394;2023-09-19T03:22:22;1.03;;;0.40;;
15848;SDS011;8024;48.708;9.394;2023-09-19T03:24:49;0.33;;;0.33;;
15848;SDS011;8024;48.708;9.394;2023-09-19T03:27:18;0.77;;;0.30;;
15848;SDS011;8024;48.708;9.394;2023-09-19T03:29:46;0.30;;;0.30;;
15848;SDS011;8024;48.708;9.394;2023-09-19T03:32:13;0.47;;;0.40;;
15848;SDS011;8024;48.708;9.394;2023-09-19T03:34:40;2.40;;;0.40;;
15848;SDS011;8024;48.708;9.394;2023-09-19T03:37:08;0.80;;;0.30;;
15848;SDS011;8024;48.708;9.394;2023-09-19T03:39:35;0.80;;;0.40;;
15848;SDS011;8024;48.708;9.394;2023-09-19T03:42:03;0.30;;;0.30;;
15848;SDS011;8024;48.708;9.394;2023-09-19T03:44:33;0.57;;;0.33;;
15848;SDS011;8024;48.708;9.394;2023-09-19T03:47:00;0.40;;;0.30;;
15848;SDS011;8024;48.708;9.394;2023-09-19T03:49:29;1.03;;;0.40;;
15848;SDS011;8024;48.708;9.394;2023-09-19T03:51:56;1.07;;;0.40;;
15848;SDS011;8024;48.708;9.394;2023-09-19T03:54:24;1.47;;;0.50;;
15848;SDS011;8024;48.708;9.394;2023-09-19T03:56:51;0.30;;;0.30;;
15848;SDS011;8024;48.708;9.394;2023-09-19T03:59:18;0.67;;;0.30;;
15848;SDS011;8024;48.708;9.394;2023-09-19T04:01:46;0.30;;;0.30;;
15848;SDS011;8024;48.708;9.394;2023-09-19T04:04:15;1.40;;;0.33;;
15848;SDS011;8024;48.708;9.394;2023-09-19T04:06:44;1.20;;;0.30;;
15848;SDS011;8024;48.708;9.394;2023-09-19T04:09:11;0.90;;;0.40;;
15848;SDS011;8024;48.708;9.394;2023-09-19T04:11:38;1.07;;;0.30;;
15848;SDS011;8024;48.708;9.394;2023-09-19T04:14:05;0.47;;;0.40;;
15848;SDS011;8024;48.708;9.394;2023-09-19T04:16:32;0.83;;;0.30;;
15848;SDS011;8024;48.708;9.394;2023-09-19T04:19:01;0.57;;;0.30;;
15848;SDS011;8024;48.708;9.394;2023-09-19T04:21:28;0.83;;;0.47;;
15848;SDS011;8024;48.708;9.394;2023-09-19T04:23:56;0.30;;;0.30;;
15848;SDS011;8024;48.708;9.394;2023-09-19T04:26:23;0.83;;;0.30;;
15848;SDS011;8024;48.708;9.394;2023-09-19T04:28:51;0.77;;;0.50;;
15848;SDS011;8024;48.708;9.394;2023-09-19T04:31:18;1.00;;;0.60;;
15848;SDS011;8024;48.708;9.394;2023-09-19T04:33:47;0.73;;;0.30;;
15848;SDS011;8024;48.708;9.394;2023-09-19T04:36:15;0.40;;;0.30;;
15848;SDS011;8024;48.708;9.394;2023-09-19T04:38:42;0.63;;;0.40;;
15848;SDS011;8024;48.708;9.394;2023-09-19T04:41:09;0.50;;;0.27;;
15848;SDS011;8024;48.708;9.394;2023-09-19T04:43:36;0.70;;;0.50;;
15848;SDS011;8024;48.708;9.394;2023-09-19T04:46:03;1.33;;;0.40;;
15848;SDS011;8024;48.708;9.394;2023-09-19T04:48:31;0.40;;;0.40;;
15848;SDS011;8024;48.708;9.394;2023-09-19T04:50:59;1.60;;;0.40;;
15848;SDS011;8024;48.708;9.394;2023-09-19T04:53:28;1.37;;;0.70;;
15848;SDS011;8024;48.708;9.394;2023-09-19T04:55:55;1.70;;;0.30;;
15848;SDS011;8024;48.708;9.394;2023-09-19T04:58:23;0.70;;;0.53;;
15848;SDS011;8024;48.708;9.394;2023-09-19T05:00:50;0.47;;;0.40;;
15848;SDS011;8024;48.708;9.394;2023-09-19T05:03:17;1.27;;;0.40;;
15848;SDS011;8024;48.708;9.394;2023-09-19T05:05:45;1.30;;;0.60;;
15848;SDS011;8024;48.708;9.394;2023-09-19T05:08:12;1.20;;;0.60;;
15848;SDS011;8024;48.708;9.394;2023-09-19T05:10:41;1.10;;;0.40;;
15848;SDS011;8024;48.708;9.394;2023-09-19T05:13:08;0.50;;;0.40;;
15848;SDS011;8024;48.708;9.394;2023-09-19T05:15:37;1.33;;;0.40;;
15848;SDS011;8024;48.708;9.394;2023-09-19T05:18:04;0.40;;;0.40;;
15848;SDS011;8024;48.708;9.394;2023-09-19T05:20:31;0.40;;;0.40;;
15848;SDS011;8024;48.708;9.394;2023-09-19T05:23:01;0.57;;;0.50;;
15848;SDS011;8024;48.708;9.394;2023-09-19T05:25:31;0.43;;;0.43;;
15848;SDS011;8024;48.708;9.394;2023-09-19T05:28:03;0.47;;;0.47;;
15848;SDS011;8024;48.708;9.394;2023-09-19T05:30:31;1.07;;;0.70;;
15848;SDS011;8024;48.708;9.394;2023-09-19T05:33:01;0.40;;;0.40;;
15848;SDS011;8024;48.708;9.394;2023-09-19T05:35:29;0.60;;;0.40;;
15848;SDS011;8024;48.708;9.394;2023-09-19T05:37:57;0.50;;;0.40;;
15848;SDS011;8024;48.708;9.394;2023-09-19T05:40:24;1.17;;;0.40;;
15848;SDS011;8024;48.708;9.394;2023-09-19T05:42:52;2.47;;;0.50;;
15848;SDS011;8024;48.708;9.394;2023-09-19T05:45:20;1.83;;;0.40;;
15848;SDS011;8024;48.708;9.394;2023-09-19T05:47:48;1.30;;;0.60;;
15848;SDS011;8024;48.708;9.394;2023-09-19T05:50:16;1.60;;;0.60;;
15848;SDS011;8024;48.708;9.394;2023-09-19T05:52:47;1.07;;;0.50;;
15848;SDS011;8024;48.708;9.394;2023-09-19T05:55:18;1.10;;;0.57;;
15848;SDS011;8024;48.708;9.394;2023-09-19T05:57:49;0.60;;;0.60;;
15848;SDS011;8024;48.708;9.394;2023-09-19T06:00:17;0.73;;;0.60;;
15848;SDS011;8024;48.708;9.394;2023-09-19T06:02:50;2.03;;;0.70;;
15848;SDS011;8024;48.708;9.394;2023-09-19T06:05:18;1.87;;;0.70;;
15848;SDS011;8024;48.708;9.394;2023-09-19T06:07:46;0.80;;;0.53;;
15848;SDS011;8024;48.708;9.394;2023-09-19T06:10:13;1.10;;;0.50;;
15848;SDS011;8024;48.708;9.394;2023-09-19T06:12:42;0.67;;;0.50;;
15848;SDS011;8024;48.708;9.394;2023-09-19T06:15:10;1.57;;;0.70;;
15848;SDS011;8024;48.708;9.394;2023-09-19T06:17:40;0.63;;;0.50;;
15848;SDS011;8024;48.708;9.394;2023-09-19T06:20:09;0.77;;;0.50;;
15848;SDS011;8024;48.708;9.394;2023-09-19T06:22:40;0.83;;;0.63;;
15848;SDS011;8024;48.708;9.394;2023-09-19T06:25:08;2.07;;;1.07;;
15848;SDS011;8024;48.708;9.394;2023-09-19T06:27:37;1.13;;;0.77;;
15848;SDS011;8024;48.708;9.394;2023-09-19T06:30:07;0.60;;;0.60;;
15848;SDS011;8024;48.708;9.394;2023-09-19T06:32:36;2.40;;;0.57;;
15848;SDS011;8024;48.708;9.394;2023-09-19T06:35:03;2.37;;;0.60;;
15848;SDS011;8024;48.708;9.394;2023-09-19T06:37:34;0.57;;;0.43;;
15848;SDS011;8024;48.708;9.394;2023-09-19T06:40:04;0.80;;;0.80;;
15848;SDS011;8024;48.708;9.394;2023-09-19T06:42:33;0.87;;;0.87;;
15848;SDS011;8024;48.708;9.394;2023-09-19T06:45:02;2.13;;;0.70;;
15848;SDS011;8024;48.708;9.394;2023-09-19T06:47:30;1.60;;;0.73;;
15848;SDS011;8024;48.708;9.394;2023-09-19T06:49:57;0.80;;;0.80;;
15848;SDS011;8024;48.708;9.394;2023-09-19T06:52:27;2.27;;;0.83;;
15848;SDS011;8024;48.708;9.394;2023-09-19T06:54:56;1.67;;;0.90;;
15848;SDS011;8024;48.708;9.394;2023-09-19T06:57:23;2.07;;;0.97;;
15848;SDS011;8024;48.708;9.394;2023-09-19T06:59:50;1.50;;;1.10;;
15848;SDS011;8024;48.708;9.394;2023-09-19T07:02:17;1.40;;;1.30;;
15848;SDS011;8024;48.708;9.394;2023-09-19T07:04:47;1.70;;;1.00;;
15848;SDS011;8024;48.708;9.394;2023-09-19T07:07:14;1.73;;;0.90;;
15848;SDS011;8024;48.708;9.394;2023-09-19T07:09:42;1.17;;;0.70;;
15848;SDS011;8024;48.708;9.394;2023-09-19T07:12:10;1.77;;;0.80;;
15848;SDS011;8024;48.708;9.394;2023-09-19T07:14:38;1.43;;;1.10;;
15848;SDS011;8024;48.708;9.394;2023-09-19T07:17:05;4.00;;;1.20;;
15848;SDS011;8024;48.708;9.394;2023-09-19T07:19:32;1.03;;;0.73;;
15848;SDS011;8024;48.708;9.394;2023-09-19T07:22:00;1.03;;;0.80;;
15848;SDS011;8024;48.708;9.394;2023-09-19T07:24:27;0.50;;;0.50;;
15848;SDS011;8024;48.708;9.394;2023-09-19T07:26:55;1.50;;;0.57;;
15848;SDS011;8024;48.708;9.394;2023-09-19T07:29:23;0.93;;;0.40;;
15848;SDS011;8024;48.708;9.394;2023-09-19T07:31:51;1.07;;;0.60;;
15848;SDS011;8024;48.708;9.394;2023-09-19T07:34:18;1.40;;;0.43;;
15848;SDS011;8024;48.708;9.394;2023-09-19T07:36:48;0.60;;;0.60;;
15848;SDS011;8024;48.708;9.394;2023-09-19T07:39:15;2.57;;;0.70;;
15848;SDS011;8024;48.708;9.394;2023-09-19T07:41:42;0.80;;;0.77;;
15848;SDS011;8024;48.708;9.394;2023-09-19T07:44:09;0.70;;;0.50;;
15848;SDS011;8024;48.708;9.394;2023-09-19T07:46:38;0.50;;;0.40;;
15848;SDS011;8024;48.708;9.394;2023-09-19T07:49:05;0.97;;;0.40;;
15848;SDS011;8024;48.708;9.394;2023-09-19T07:51:31;0.50;;;0.50;;
15848;SDS011;8024;48.708;9.394;2023-09-19T07:53:59;0.50;;;0.47;;
15848;SDS011;8024;48.708;9.394;2023-09-19T07:56:26;1.60;;;0.47;;
15848;SDS011;8024;48.708;9.394;2023-09-19T07:58:53;1.27;;;0.43;;
15848;SDS011;8024;48.708;9.394;2023-09-19T08:01:22;0.50;;;0.50;;
15848;SDS011;8024;48.708;9.394;2023-09-19T08:03:53;1.23;;;0.97;;
15848;SDS011;8024;48.708;9.394;2023-09-19T08:06:20;1.10;;;0.53;;
15848;SDS011;8024;48.708;9.394;2023-09-19T08:08:50;1.13;;;0.63;;
15848;SDS011;8024;48.708;9.394;2023-09-19T08:11:20;0.87;;;0.87;;
15848;SDS011;8024;48.708;9.394;2023-09-19T08:13:49;0.53;;;0.50;;
15848;SDS011;8024;48.708;9.394;2023-09-19T08:16:17;0.60;;;0.50;;
15848;SDS011;8024;48.708;9.394;2023-09-19T08:18:47;0.57;;;0.37;;
15848;SDS011;8024;48.708;9.394;2023-09-19T08:21:21;1.60;;;0.73;;
15848;SDS011;8024;48.708;9.394;2023-09-19T08:23:49;3.03;;;0.80;;
15848;SDS011;8024;48.708;9.394;2023-09-19T08:26:16;0.93;;;0.60;;
15848;SDS011;8024;48.708;9.394;2023-09-19T08:28:44;2.83;;;0.60;;
15848;SDS011;8024;48.708;9.394;2023-09-19T08:31:13;0.90;;;0.50;;
15848;SDS011;8024;48.708;9.394;2023-09-19T08:33:41;0.50;;;0.50;;
15848;SDS011;8024;48.708;9.394;2023-09-19T08:36:10;0.83;;;0.50;;
15848;SDS011;8024;48.708;9.394;2023-09-19T08:38:40;0.57;;;0.40;;
15848;SDS011;8024;48.708;9.394;2023-09-19T08:41:08;0.47;;;0.40;;
15848;SDS011;8024;48.708;9.394;2023-09-19T08:43:35;0.67;;;0.40;;
15848;SDS011;8024;48.708;9.394;2023-09-19T08:46:03;1.23;;;0.40;;
15848;SDS011;8024;48.708;9.394;2023-09-19T08:48:36;0.63;;;0.30;;
15848;SDS011;8024;48.708;9.394;2023-09-19T08:51:10;0.57;;;0.57;;
15848;SDS011;8024;48.708;9.394;2023-09-19T08:53:47;1.17;;;0.40;;
15848;SDS011;8024;48.708;9.394;2023-09-19T08:56:18;1.40;;;0.73;;
15848;SDS011;8024;48.708;9.394;2023-09-19T08:58:48;0.60;;;0.43;;
15848;SDS011;8024;48.708;9.394;2023-09-19T09:01:19;1.03;;;0.50;;
15848;SDS011;8024;48.708;9.394;2023-09-19T09:03:49;2.07;;;0.40;;
15848;SDS011;8024;48.708;9.394;2023-09-19T09:06:17;0.43;;;0.43;;
15848;SDS011;8024;48.708;9.394;2023-09-19T09:08:46;1.10;;;0.60;;
15848;SDS011;8024;48.708;9.394;2023-09-19T09:11:15;0.60;;;0.50;;
15848;SDS011;8024;48.708;9.394;2023-09-19T09:13:43;0.63;;;0.40;;
15848;SDS011;8024;48.708;9.394;2023-09-19T09:16:11;0.83;;;0.33;;
15848;SDS011;8024;48.708;9.394;2023-09-19T09:18:38;0.60;;;0.50;;
15848;SDS011;8024;48.708;9.394;2023-09-19T09:21:06;1.40;;;0.40;;
15848;SDS011;8024;48.708;9.394;2023-09-19T09:23:33;0.67;;;0.40;;
15848;SDS011;8024;48.708;9.394;2023-09-19T09:26:01;1.10;;;0.40;;
15848;SDS011;8024;48.708;9.394;2023-09-19T09:28:31;1.10;;;0.40;;
15848;SDS011;8024;48.708;9.394;2023-09-19T09:31:00;0.43;;;0.30;;
15848;SDS011;8024;48.708;9.394;2023-09-19T09:33:33;1.23;;;0.50;;
15848;SDS011;8024;48.708;9.394;2023-09-19T09:36:01;1.43;;;0.40;;
15848;SDS011;8024;48.708;9.394;2023-09-19T09:38:30;0.47;;;0.37;;
15848;SDS011;8024;48.708;9.394;2023-09-19T09:41:12;0.40;;;0.40;;
15848;SDS011;8024;48.708;9.394;2023-09-19T09:43:52;0.77;;;0.40;;
15848;SDS011;8024;48.708;9.394;2023-09-19T09:46:20;0.40;;;0.40;;
15848;SDS011;8024;48.708;9.394;2023-09-19T09:49:10;0.73;;;0.30;;
15848;SDS011;8024;48.708;9.394;2023-09-19T09:51:41;0.40;;;0.40;;
15848;SDS011;8024;48.708;9.394;2023-09-19T09:54:12;1.43;;;0.50;;
15848;SDS011;8024;48.708;9.394;2023-09-19T09:56:54;0.57;;;0.37;;
15848;SDS011;8024;48.708;9.394;2023-09-19T10:02:20;1.40;;;0.80;;
15848;SDS011;8024;48.708;9.394;2023-09-19T10:04:54;0.70;;;0.50;;
15848;SDS011;8024;48.708;9.394;2023-09-19T10:07:34;0.73;;;0.40;;
15848;SDS011;8024;48.708;9.394;2023-09-19T10:10:03;0.77;;;0.43;;
15848;SDS011;8024;48.708;9.394;2023-09-19T10:12:43;0.60;;;0.40;;
15848;SDS011;8024;48.708;9.394;2023-09-19T10:15:13;0.70;;;0.30;;
15848;SDS011;8024;48.708;9.394;2023-09-19T10:17:43;1.50;;;0.40;;
15848;SDS011;8024;48.708;9.394;2023-09-19T10:20:14;1.20;;;0.30;;
15848;SDS011;8024;48.708;9.394;2023-09-19T10:23:03;0.50;;;0.50;;
15848;SDS011;8024;48.708;9.394;2023-09-19T10:25:36;2.10;;;0.63;;
15848;SDS011;8024;48.708;9.394;2023-09-19T10:28:06;0.80;;;0.53;;
15848;SDS011;8024;48.708;9.394;2023-09-19T10:30:36;1.00;;;0.40;;
15848;SDS011;8024;48.708;9.394;2023-09-19T10:33:07;1.50;;;0.47;;
15848;SDS011;8024;48.708;9.394;2023-09-19T10:35:36;1.33;;;0.50;;
15848;SDS011;8024;48.708;9.394;2023-09-19T10:38:06;0.73;;;0.53;;
15848;SDS011;8024;48.708;9.394;2023-09-19T10:40:35;1.00;;;0.60;;
15848;SDS011;8024;48.708;9.394;2023-09-19T10:43:11;1.50;;;0.50;;
15848;SDS011;8024;48.708;9.394;2023-09-19T10:45:39;0.77;;;0.40;;
15848;SDS011;8024;48.708;9.394;2023-09-19T10:48:09;0.50;;;0.50;;
15848;SDS011;8024;48.708;9.394;2023-09-19T10:50:41;0.43;;;0.20;;
15848;SDS011;8024;48.708;9.394;2023-09-19T10:53:13;1.20;;;0.30;;
15848;SDS011;8024;48.708;9.394;2023-09-19T10:55:42;1.93;;;0.40;;
15848;SDS011;8024;48.708;9.394;2023-09-19T10:58:25;0.73;;;0.30;;
15848;SDS011;8024;48.708;9.394;2023-09-19T11:00:54;0.53;;;0.53;;
15848;SDS011;8024;48.708;9.394;2023-09-19T11:03:26;0.97;;;0.70;;
15848;SDS011;8024;48.708;9.394;2023-09-19T11:06:02;0.77;;;0.47;;
15848;SDS011;8024;48.708;9.394;2023-09-19T11:11:39;0.50;;;0.40;;
15848;SDS011;8024;48.708;9.394;2023-09-19T11:17:30;0.30;;;0.30;;
15848;SDS011;8024;48.708;9.394;2023-09-19T11:20:17;0.67;;;0.60;;
15848;SDS011;8024;48.708;9.394;2023-09-19T11:25:56;1.27;;;0.40;;
15848;SDS011;8024;48.708;9.394;2023-09-19T11:28:33;0.73;;;0.40;;
15848;SDS011;8024;48.708;9.394;2023-09-19T11:40:31;0.97;;;0.47;;
15848;SDS011;8024;48.708;9.394;2023-09-19T11:43:00;0.63;;;0.40;;
15848;SDS011;8024;48.708;9.394;2023-09-19T11:46:07;0.40;;;0.40;;
15848;SDS011;8024;48.708;9.394;2023-09-19T11:48:36;1.20;;;0.40;;
15848;SDS011;8024;48.708;9.394;2023-09-19T11:51:18;0.40;;;0.37;;
15848;SDS011;8024;48.708;9.394;2023-09-19T11:53:47;0.63;;;0.40;;
15848;SDS011;8024;48.708;9.394;2023-09-19T11:56:15;1.60;;;0.30;;
15848;SDS011;8024;48.708;9.394;2023-09-19T11:58:45;0.77;;;0.43;;
15848;SDS011;8024;48.708;9.394;2023-09-19T12:01:21;0.63;;;0.30;;
15848;SDS011;8024;48.708;9.394;2023-09-19T12:03:52;0.80;;;0.30;;
15848;SDS011;8024;48.708;9.394;2023-09-19T12:06:23;0.73;;;0.40;;
15848;SDS011;8024;48.708;9.394;2023-09-19T12:08:51;0.40;;;0.40;;
15848;SDS011;8024;48.708;9.394;2023-09-19T12:11:20;1.50;;;0.40;;
15848;SDS011;8024;48.708;9.394;2023-09-19T12:13:49;0.20;;;0.20;;
15848;SDS011;8024;48.708;9.394;2023-09-19T12:16:18;2.73;;;0.40;;
15848;SDS011;8024;48.708;9.394;2023-09-19T12:18:48;1.37;;;0.30;;
15848;SDS011;8024;48.708;9.394;2023-09-19T12:21:24;0.30;;;0.20;;
15848;SDS011;8024;48.708;9.394;2023-09-19T12:24:03;0.60;;;0.30;;
15848;SDS011;8024;48.708;9.394;2023-09-19T12:26:38;0.63;;;0.40;;
15848;SDS011;8024;48.708;9.394;2023-09-19T12:29:10;0.77;;;0.30;;
15848;SDS011;8024;48.708;9.394;2023-09-19T12:31:52;2.73;;;0.30;;
15848;SDS011;8024;48.708;9.394;2023-09-19T12:34:22;1.27;;;0.40;;
15848;SDS011;8024;48.708;9.394;2023-09-19T12:39:45;0.30;;;0.30;;
15848;SDS011;8024;48.708;9.394;2023-09-19T12:42:16;0.40;;;0.33;;
15848;SDS011;8024;48.708;9.394;2023-09-19T12:44:45;1.03;;;0.30;;
15848;SDS011;8024;48.708;9.394;2023-09-19T12:47:15;0.97;;;0.50;;
15848;SDS011;8024;48.708;9.394;2023-09-19T12:52:43;0.60;;;0.30;;
15848;SDS011;8024;48.708;9.394;2023-09-19T12:55:22;1.03;;;0.43;;
15848;SDS011;8024;48.708;9.394;2023-09-19T12:58:01;0.87;;;0.40;;
15848;SDS011;8024;48.708;9.394;2023-09-19T13:00:34;0.63;;;0.33;;
15848;SDS011;8024;48.708;9.394;2023-09-19T13:03:09;0.77;;;0.40;;
15848;SDS011;8024;48.708;9.394;2023-09-19T13:05:47;0.87;;;0.37;;
15848;SDS011;8024;48.708;9.394;2023-09-19T13:08:20;0.30;;;0.30;;
15848;SDS011;8024;48.708;9.394;2023-09-19T13:11:07;0.67;;;0.40;;
15848;SDS011;8024;48.708;9.394;2023-09-19T13:13:37;1.30;;;0.53;;
15848;SDS011;8024;48.708;9.394;2023-09-19T13:16:07;0.97;;;0.30;;
15848;SDS011;8024;48.708;9.394;2023-09-19T13:18:44;1.73;;;0.40;;
15848;SDS011;8024;48.708;9.394;2023-09-19T13:21:15;0.77;;;0.30;;
15848;SDS011;8024;48.708;9.394;2023-09-19T13:23:53;0.33;;;0.30;;
15848;SDS011;8024;48.708;9.394;2023-09-19T13:26:24;2.00;;;0.30;;
15848;SDS011;8024;48.708;9.394;2023-09-19T13:28:53;2.07;;;0.40;;
15848;SDS011;8024;48.708;9.394;2023-09-19T13:31:20;0.43;;;0.40;;
15848;SDS011;8024;48.708;9.394;2023-09-19T13:33:48;2.40;;;0.40;;
15848;SDS011;8024;48.708;9.394;2023-09-19T13:36:17;1.23;;;0.50;;
15848;SDS011;8024;48.708;9.394;2023-09-19T13:38:44;1.33;;;0.30;;
15848;SDS011;8024;48.708;9.394;2023-09-19T13:41:15;0.47;;;0.30;;
15848;SDS011;8024;48.708;9.394;2023-09-19T13:43:42;0.40;;;0.40;;
15848;SDS011;8024;48.708;9.394;2023-09-19T13:46:13;1.10;;;0.30;;
15848;SDS011;8024;48.708;9.394;2023-09-19T13:48:41;0.80;;;0.37;;
15848;SDS011;8024;48.708;9.394;2023-09-19T13:51:08;2.83;;;0.40;;
15848;SDS011;8024;48.708;9.394;2023-09-19T13:53:35;0.60;;;0.40;;
15848;SDS011;8024;48.708;9.394;2023-09-19T13:56:03;0.53;;;0.40;;
15848;SDS011;8024;48.708;9.394;2023-09-19T13:58:32;0.40;;;0.33;;
15848;SDS011;8024;48.708;9.394;2023-09-19T14:01:00;1.27;;;0.33;;
15848;SDS011;8024;48.708;9.394;2023-09-19T14:03:28;1.60;;;0.30;;
15848;SDS011;8024;48.708;9.394;2023-09-19T14:05:55;1.57;;;0.47;;
15848;SDS011;8024;48.708;9.394;2023-09-19T14:08:22;1.10;;;0.30;;
15848;SDS011;8024;48.708;9.394;2023-09-19T14:10:50;0.67;;;0.30;;
15848;SDS011;8024;48.708;9.394;2023-09-19T14:13:18;1.23;;;0.43;;
15848;SDS011;8024;48.708;9.394;2023-09-19T14:15:47;0.30;;;0.30;;
15848;SDS011;8024;48.708;9.394;2023-09-19T14:18:14;0.50;;;0.30;;
15848;SDS011;8024;48.708;9.394;2023-09-19T14:20:41;1.70;;;0.40;;
15848;SDS011;8024;48.708;9.394;2023-09-19T14:23:08;1.53;;;0.30;;
15848;SDS011;8024;48.708;9.394;2023-09-19T14:25:36;0.30;;;0.30;;
15848;SDS011;8024;48.708;9.394;2023-09-19T14:28:04;0.30;;;0.30;;
15848;SDS011;8024;48.708;9.394;2023-09-19T14:30:33;1.50;;;0.50;;
15848;SDS011;8024;48.708;9.394;2023-09-19T14:33:03;0.50;;;0.30;;
15848;SDS011;8024;48.708;9.394;2023-09-19T14:35:31;0.37;;;0.37;;
15848;SDS011;8024;48.708;9.394;2023-09-19T14:37:58;0.33;;;0.30;;
15848;SDS011;8024;48.708;9.394;2023-09-19T14:40:25;0.73;;;0.30;;
15848;SDS011;8024;48.708;9.394;2023-09-19T14:42:52;0.40;;;0.30;;
15848;SDS011;8024;48.708;9.394;2023-09-19T14:45:19;2.33;;;0.50;;
15848;SDS011;8024;48.708;9.394;2023-09-19T14:47:47;1.03;;;0.33;;
15848;SDS011;8024;48.708;9.394;2023-09-19T14:50:18;0.37;;;0.30;;
15848;SDS011;8024;48.708;9.394;2023-09-19T14:52:45;0.60;;;0.33;;
15848;SDS011;8024;48.708;9.394;2023-09-19T14:55:12;0.60;;;0.30;;
15848;SDS011;8024;48.708;9.394;2023-09-19T14:57:40;2.93;;;0.43;;
15848;SDS011;8024;48.708;9.394;2023-09-19T15:00:10;0.80;;;0.30;;
15848;SDS011;8024;48.708;9.394;2023-09-19T15:02:38;0.80;;;0.50;;
15848;SDS011;8024;48.708;9.394;2023-09-19T15:05:06;1.13;;;0.40;;
15848;SDS011;8024;48.708;9.394;2023-09-19T15:07:36;0.30;;;0.20;;
15848;SDS011;8024;48.708;9.394;2023-09-19T15:10:04;0.40;;;0.30;;
15848;SDS011;8024;48.708;9.394;2023-09-19T15:12:34;0.30;;;0.30;;
15848;SDS011;8024;48.708;9.394;2023-09-19T15:15:03;0.57;;;0.30;;
15848;SDS011;8024;48.708;9.394;2023-09-19T15:17:32;3.37;;;0.60;;
15848;SDS011;8024;48.708;9.394;2023-09-19T15:19:59;0.50;;;0.30;;
15848;SDS011;8024;48.708;9.394;2023-09-19T15:22:27;0.60;;;0.40;;
15848;SDS011;8024;48.708;9.394;2023-09-19T15:24:55;0.53;;;0.30;;
15848;SDS011;8024;48.708;9.394;2023-09-19T15:27:22;0.30;;;0.30;;
15848;SDS011;8024;48.708;9.394;2023-09-19T15:29:49;0.80;;;0.30;;
15848;SDS011;8024;48.708;9.394;2023-09-19T15:32:17;1.77;;;0.40;;
15848;SDS011;8024;48.708;9.394;2023-09-19T15:34:44;0.33;;;0.30;;
15848;SDS011;8024;48.708;9.394;2023-09-19T15:37:13;1.40;;;0.40;;
15848;SDS011;8024;48.708;9.394;2023-09-19T15:39:40;0.40;;;0.40;;
15848;SDS011;8024;48.708;9.394;2023-09-19T15:42:11;2.83;;;0.30;;
15848;SDS011;8024;48.708;9.394;2023-09-19T15:44:38;1.07;;;0.30;;